sensor_id;sensor_type;location;lat;lon;timestamp;temperature;humidity
32965;DHT22;19317;48.226;11.686;2023-02-22T00:02:22;6.70;99.90
32965;DHT22;19317;48.226;11.686;2023-02-22T00:07:12;7.60;99.90
32965;DHT22;19317;48.226;11.686;2023-02-22T00:12:02;7.80;99.90
32965;DHT22;19317;48.226;11.686;2023-02-22T00:16:53;7.50;99.90
32965;DHT22;19317;48.226;11.686;2023-02-22T00:21:43;7.80;99.90
32965;DHT22;19317;48.226;11.686;2023-02-22T00:26:34;7.60;99.90
32965;DHT22;19317;48.226;11.686;2023-02-22T00:31:24;7.40;99.90
32965;DHT22;19317;48.226;11.686;2023-02-22T00:36:15;7.40;99.90
32965;DHT22;19317;48.226;11.686;2023-02-22T00:41:05;7.20;99.90
32965;DHT22;19317;48.226;11.686;2023-02-22T00:45:56;7.30;99.90
32965;DHT22;19317;48.226;11.686;2023-02-22T00:50:46;7.10;99.90
32965;DHT22;19317;48.226;11.686;2023-02-22T00:55:39;7.10;99.90
32965;DHT22;19317;48.226;11.686;2023-02-22T01:00:38;7.10;99.90
32965;DHT22;19317;48.226;11.686;2023-02-22T01:05:29;7.00;99.90
32965;DHT22;19317;48.226;11.686;2023-02-22T01:10:22;7.00;99.90
32965;DHT22;19317;48.226;11.686;2023-02-22T01:15:14;6.70;99.90
32965;DHT22;19317;48.226;11.686;2023-02-22T01:20:07;6.60;99.90
32965;DHT22;19317;48.226;11.686;2023-02-22T01:24:58;6.90;99.90
32965;DHT22;19317;48.226;11.686;2023-02-22T01:29:49;6.60;99.90
32965;DHT22;19317;48.226;11.686;2023-02-22T01:34:39;6.30;99.90
32965;DHT22;19317;48.226;11.686;2023-02-22T01:39:29;6.20;99.90
32965;DHT22;19317;48.226;11.686;2023-02-22T01:49:20;5.80;99.90
32965;DHT22;19317;48.226;11.686;2023-02-22T01:54:20;5.90;99.90
32965;DHT22;19317;48.226;11.686;2023-02-22T01:59:13;6.50;99.90
32965;DHT22;19317;48.226;11.686;2023-02-22T02:04:18;6.30;99.90
32965;DHT22;19317;48.226;11.686;2023-02-22T02:09:34;5.70;99.90
32965;DHT22;19317;48.226;11.686;2023-02-22T02:14:26;6.20;99.90
32965;DHT22;19317;48.226;11.686;2023-02-22T02:24:44;6.00;99.90
32965;DHT22;19317;48.226;11.686;2023-02-22T02:40:17;6.20;99.90
32965;DHT22;19317;48.226;11.686;2023-02-22T02:45:22;6.20;99.90
32965;DHT22;19317;48.226;11.686;2023-02-22T02:50:25;6.30;99.90
32965;DHT22;19317;48.226;11.686;2023-02-22T02:55:17;5.80;99.90
32965;DHT22;19317;48.226;11.686;2023-02-22T03:00:08;6.00;99.90
32965;DHT22;19317;48.226;11.686;2023-02-22T03:15:59;6.00;99.90
32965;DHT22;19317;48.226;11.686;2023-02-22T03:25:57;6.00;99.90
32965;DHT22;19317;48.226;11.686;2023-02-22T03:31:03;5.90;99.90
32965;DHT22;19317;48.226;11.686;2023-02-22T03:36:01;5.20;99.90
32965;DHT22;19317;48.226;11.686;2023-02-22T03:40:55;5.30;99.90
32965;DHT22;19317;48.226;11.686;2023-02-22T03:45:49;5.20;99.90
32965;DHT22;19317;48.226;11.686;2023-02-22T03:50:40;4.90;99.90
32965;DHT22;19317;48.226;11.686;2023-02-22T03:55:30;4.80;99.90
32965;DHT22;19317;48.226;11.686;2023-02-22T04:00:25;4.80;99.90
32965;DHT22;19317;48.226;11.686;2023-02-22T04:05:16;4.70;99.90
32965;DHT22;19317;48.226;11.686;2023-02-22T04:10:06;4.20;99.90
32965;DHT22;19317;48.226;11.686;2023-02-22T04:14:57;4.00;99.90
32965;DHT22;19317;48.226;11.686;2023-02-22T04:19:47;4.00;99.90
32965;DHT22;19317;48.226;11.686;2023-02-22T04:24:38;4.90;99.90
32965;DHT22;19317;48.226;11.686;2023-02-22T04:29:28;5.40;99.90
32965;DHT22;19317;48.226;11.686;2023-02-22T04:34:19;5.50;99.90
32965;DHT22;19317;48.226;11.686;2023-02-22T04:39:10;5.60;99.90
32965;DHT22;19317;48.226;11.686;2023-02-22T04:44:00;5.50;99.90
32965;DHT22;19317;48.226;11.686;2023-02-22T04:48:51;5.50;99.90
32965;DHT22;19317;48.226;11.686;2023-02-22T04:53:41;5.30;99.90
32965;DHT22;19317;48.226;11.686;2023-02-22T04:58:32;5.10;99.90
32965;DHT22;19317;48.226;11.686;2023-02-22T05:03:22;5.20;99.90
32965;DHT22;19317;48.226;11.686;2023-02-22T05:08:12;4.80;99.90
32965;DHT22;19317;48.226;11.686;2023-02-22T05:13:03;4.90;99.90
32965;DHT22;19317;48.226;11.686;2023-02-22T05:17:53;4.00;99.90
32965;DHT22;19317;48.226;11.686;2023-02-22T05:22:44;4.20;99.90
32965;DHT22;19317;48.226;11.686;2023-02-22T05:27:34;4.90;99.90
32965;DHT22;19317;48.226;11.686;2023-02-22T05:32:25;4.90;99.90
32965;DHT22;19317;48.226;11.686;2023-02-22T05:37:15;4.80;99.90
32965;DHT22;19317;48.226;11.686;2023-02-22T05:42:06;4.80;99.90
32965;DHT22;19317;48.226;11.686;2023-02-22T05:46:56;4.40;99.90
32965;DHT22;19317;48.226;11.686;2023-02-22T05:51:46;4.50;99.90
32965;DHT22;19317;48.226;11.686;2023-02-22T05:56:37;4.70;99.90
32965;DHT22;19317;48.226;11.686;2023-02-22T06:01:27;4.50;99.90
32965;DHT22;19317;48.226;11.686;2023-02-22T06:06:19;4.60;99.90
32965;DHT22;19317;48.226;11.686;2023-02-22T06:11:10;4.60;99.90
32965;DHT22;19317;48.226;11.686;2023-02-22T06:16:01;4.50;99.90
32965;DHT22;19317;48.226;11.686;2023-02-22T06:20:52;3.80;99.90
32965;DHT22;19317;48.226;11.686;2023-02-22T06:25:42;4.00;99.90
32965;DHT22;19317;48.226;11.686;2023-02-22T06:30:32;4.40;99.90
32965;DHT22;19317;48.226;11.686;2023-02-22T06:35:23;4.50;99.90
32965;DHT22;19317;48.226;11.686;2023-02-22T06:40:14;4.30;99.90
32965;DHT22;19317;48.226;11.686;2023-02-22T06:45:05;4.40;99.90
32965;DHT22;19317;48.226;11.686;2023-02-22T06:49:57;4.50;99.90
32965;DHT22;19317;48.226;11.686;2023-02-22T06:54:48;4.20;99.90
32965;DHT22;19317;48.226;11.686;2023-02-22T06:59:38;4.20;99.90
32965;DHT22;19317;48.226;11.686;2023-02-22T07:04:29;4.60;99.90
32965;DHT22;19317;48.226;11.686;2023-02-22T07:09:19;4.70;99.90
32965;DHT22;19317;48.226;11.686;2023-02-22T07:14:10;4.50;99.90
32965;DHT22;19317;48.226;11.686;2023-02-22T07:19:00;4.60;99.90
32965;DHT22;19317;48.226;11.686;2023-02-22T07:23:56;5.00;99.90
32965;DHT22;19317;48.226;11.686;2023-02-22T07:28:46;5.00;99.90
32965;DHT22;19317;48.226;11.686;2023-02-22T07:33:37;5.30;99.90
32965;DHT22;19317;48.226;11.686;2023-02-22T07:38:27;5.20;99.90
32965;DHT22;19317;48.226;11.686;2023-02-22T07:43:25;5.50;99.90
32965;DHT22;19317;48.226;11.686;2023-02-22T07:48:19;5.60;99.90
32965;DHT22;19317;48.226;11.686;2023-02-22T07:53:17;5.70;99.90
32965;DHT22;19317;48.226;11.686;2023-02-22T07:58:12;5.90;99.90
32965;DHT22;19317;48.226;11.686;2023-02-22T08:03:07;6.00;99.90
32965;DHT22;19317;48.226;11.686;2023-02-22T08:07:57;6.00;99.90
32965;DHT22;19317;48.226;11.686;2023-02-22T08:12:49;6.10;99.90
32965;DHT22;19317;48.226;11.686;2023-02-22T08:17:39;6.20;99.90
32965;DHT22;19317;48.226;11.686;2023-02-22T08:22:30;6.30;99.90
32965;DHT22;19317;48.226;11.686;2023-02-22T08:27:25;6.40;99.90
32965;DHT22;19317;48.226;11.686;2023-02-22T08:32:15;6.50;99.90
32965;DHT22;19317;48.226;11.686;2023-02-22T08:37:06;6.50;99.90
32965;DHT22;19317;48.226;11.686;2023-02-22T08:41:56;6.60;99.90
32965;DHT22;19317;48.226;11.686;2023-02-22T08:46:47;6.80;99.90
32965;DHT22;19317;48.226;11.686;2023-02-22T08:51:37;6.90;99.90
32965;DHT22;19317;48.226;11.686;2023-02-22T08:56:28;7.00;99.90
32965;DHT22;19317;48.226;11.686;2023-02-22T09:01:19;7.20;99.90
32965;DHT22;19317;48.226;11.686;2023-02-22T09:06:09;7.40;99.90
32965;DHT22;19317;48.226;11.686;2023-02-22T09:11:00;7.50;99.90
32965;DHT22;19317;48.226;11.686;2023-02-22T09:15:50;7.70;99.90
32965;DHT22;19317;48.226;11.686;2023-02-22T09:20:41;7.90;99.90
32965;DHT22;19317;48.226;11.686;2023-02-22T09:25:31;8.00;99.90
32965;DHT22;19317;48.226;11.686;2023-02-22T09:30:33;8.10;99.90
32965;DHT22;19317;48.226;11.686;2023-02-22T09:35:24;8.40;99.90
32965;DHT22;19317;48.226;11.686;2023-02-22T09:40:16;8.50;99.90
32965;DHT22;19317;48.226;11.686;2023-02-22T09:45:22;8.70;99.90
32965;DHT22;19317;48.226;11.686;2023-02-22T09:50:16;8.90;99.90
32965;DHT22;19317;48.226;11.686;2023-02-22T09:55:14;9.00;99.90
32965;DHT22;19317;48.226;11.686;2023-02-22T10:00:21;9.30;99.90
32965;DHT22;19317;48.226;11.686;2023-02-22T10:05:28;9.50;99.90
32965;DHT22;19317;48.226;11.686;2023-02-22T10:10:29;9.60;99.90
32965;DHT22;19317;48.226;11.686;2023-02-22T10:16:09;9.80;99.90
32965;DHT22;19317;48.226;11.686;2023-02-22T10:26:25;10.10;99.90
32965;DHT22;19317;48.226;11.686;2023-02-22T10:31:32;10.30;99.90
32965;DHT22;19317;48.226;11.686;2023-02-22T10:36:24;10.40;99.90
32965;DHT22;19317;48.226;11.686;2023-02-22T10:41:25;10.80;99.90
32965;DHT22;19317;48.226;11.686;2023-02-22T10:46:19;11.00;99.90
32965;DHT22;19317;48.226;11.686;2023-02-22T10:51:11;11.20;99.90
32965;DHT22;19317;48.226;11.686;2023-02-22T10:56:12;11.30;99.90
32965;DHT22;19317;48.226;11.686;2023-02-22T11:01:18;11.40;99.90
32965;DHT22;19317;48.226;11.686;2023-02-22T11:06:18;11.60;99.90
32965;DHT22;19317;48.226;11.686;2023-02-22T11:11:24;11.90;99.90
32965;DHT22;19317;48.226;11.686;2023-02-22T11:21:22;12.10;98.90
32965;DHT22;19317;48.226;11.686;2023-02-22T11:26:16;12.20;99.90
32965;DHT22;19317;48.226;11.686;2023-02-22T11:31:19;12.30;99.80
32965;DHT22;19317;48.226;11.686;2023-02-22T11:36:10;12.50;99.90
32965;DHT22;19317;48.226;11.686;2023-02-22T11:56:21;13.00;98.40
32965;DHT22;19317;48.226;11.686;2023-02-22T12:01:28;13.10;98.80
32965;DHT22;19317;48.226;11.686;2023-02-22T12:17:55;14.00;99.20
32965;DHT22;19317;48.226;11.686;2023-02-22T12:22:32;13.70;99.30
32965;DHT22;19317;48.226;11.686;2023-02-22T12:27:30;13.90;98.70
32965;DHT22;19317;48.226;11.686;2023-02-22T12:32:33;14.20;98.70
32965;DHT22;19317;48.226;11.686;2023-02-22T12:37:32;14.50;98.30
32965;DHT22;19317;48.226;11.686;2023-02-22T12:47:47;14.70;98.10
32965;DHT22;19317;48.226;11.686;2023-02-22T12:52:52;15.00;98.20
32965;DHT22;19317;48.226;11.686;2023-02-22T12:58:16;15.00;97.80
32965;DHT22;19317;48.226;11.686;2023-02-22T13:08:25;15.60;97.70
32965;DHT22;19317;48.226;11.686;2023-02-22T13:18:34;16.10;96.30
32965;DHT22;19317;48.226;11.686;2023-02-22T13:29:05;15.20;97.80
32965;DHT22;19317;48.226;11.686;2023-02-22T13:50:34;15.30;97.70
32965;DHT22;19317;48.226;11.686;2023-02-22T13:55:30;15.30;97.70
32965;DHT22;19317;48.226;11.686;2023-02-22T14:00:37;15.50;98.10
32965;DHT22;19317;48.226;11.686;2023-02-22T14:10:43;15.80;97.60
32965;DHT22;19317;48.226;11.686;2023-02-22T14:15:34;16.30;97.10
32965;DHT22;19317;48.226;11.686;2023-02-22T14:20:35;16.00;97.40
32965;DHT22;19317;48.226;11.686;2023-02-22T14:25:41;16.40;97.50
32965;DHT22;19317;48.226;11.686;2023-02-22T14:30:35;16.90;96.40
32965;DHT22;19317;48.226;11.686;2023-02-22T14:35:35;16.40;97.00
32965;DHT22;19317;48.226;11.686;2023-02-22T14:40:29;16.30;96.90
32965;DHT22;19317;48.226;11.686;2023-02-22T14:45:24;16.20;97.20
32965;DHT22;19317;48.226;11.686;2023-02-22T14:50:20;15.80;97.80
32965;DHT22;19317;48.226;11.686;2023-02-22T14:55:19;16.10;97.80
32965;DHT22;19317;48.226;11.686;2023-02-22T15:00:19;16.00;98.80
32965;DHT22;19317;48.226;11.686;2023-02-22T15:05:13;16.40;98.60
32965;DHT22;19317;48.226;11.686;2023-02-22T15:10:21;16.30;98.30
32965;DHT22;19317;48.226;11.686;2023-02-22T15:15:16;16.20;98.80
32965;DHT22;19317;48.226;11.686;2023-02-22T15:20:08;16.40;98.80
32965;DHT22;19317;48.226;11.686;2023-02-22T15:25:01;16.80;98.30
32965;DHT22;19317;48.226;11.686;2023-02-22T15:29:58;16.50;98.20
32965;DHT22;19317;48.226;11.686;2023-02-22T15:34:48;16.00;98.90
32965;DHT22;19317;48.226;11.686;2023-02-22T15:39:39;15.80;99.40
32965;DHT22;19317;48.226;11.686;2023-02-22T15:44:40;15.60;99.80
32965;DHT22;19317;48.226;11.686;2023-02-22T15:49:31;15.50;99.90
32965;DHT22;19317;48.226;11.686;2023-02-22T15:54:22;15.40;99.90
32965;DHT22;19317;48.226;11.686;2023-02-22T15:59:15;15.20;99.90
32965;DHT22;19317;48.226;11.686;2023-02-22T16:04:06;15.00;99.90
32965;DHT22;19317;48.226;11.686;2023-02-22T16:09:13;15.00;99.90
32965;DHT22;19317;48.226;11.686;2023-02-22T16:14:22;14.90;99.90
32965;DHT22;19317;48.226;11.686;2023-02-22T16:19:31;14.70;99.90
32965;DHT22;19317;48.226;11.686;2023-02-22T16:24:27;14.70;99.90
32965;DHT22;19317;48.226;11.686;2023-02-22T16:29:24;14.60;99.90
32965;DHT22;19317;48.226;11.686;2023-02-22T16:34:15;14.60;99.90
32965;DHT22;19317;48.226;11.686;2023-02-22T16:39:07;14.50;99.90
32965;DHT22;19317;48.226;11.686;2023-02-22T16:44:00;14.40;99.90
32965;DHT22;19317;48.226;11.686;2023-02-22T16:48:50;14.40;99.90
32965;DHT22;19317;48.226;11.686;2023-02-22T16:53:41;13.80;99.90
32965;DHT22;19317;48.226;11.686;2023-02-22T16:58:33;13.40;99.90
32965;DHT22;19317;48.226;11.686;2023-02-22T17:03:25;13.20;99.90
32965;DHT22;19317;48.226;11.686;2023-02-22T17:08:15;13.10;99.90
32965;DHT22;19317;48.226;11.686;2023-02-22T17:13:06;13.20;99.90
32965;DHT22;19317;48.226;11.686;2023-02-22T17:17:58;13.20;99.90
32965;DHT22;19317;48.226;11.686;2023-02-22T17:22:48;13.20;99.90
32965;DHT22;19317;48.226;11.686;2023-02-22T17:27:39;13.50;99.90
32965;DHT22;19317;48.226;11.686;2023-02-22T17:32:29;13.40;99.90
32965;DHT22;19317;48.226;11.686;2023-02-22T17:37:20;13.30;99.90
32965;DHT22;19317;48.226;11.686;2023-02-22T17:42:10;13.20;99.90
32965;DHT22;19317;48.226;11.686;2023-02-22T17:47:00;12.70;99.90
32965;DHT22;19317;48.226;11.686;2023-02-22T17:51:51;12.20;99.90
32965;DHT22;19317;48.226;11.686;2023-02-22T17:56:41;12.00;99.90
32965;DHT22;19317;48.226;11.686;2023-02-22T18:01:32;11.90;99.90
32965;DHT22;19317;48.226;11.686;2023-02-22T18:06:24;12.20;99.90
32965;DHT22;19317;48.226;11.686;2023-02-22T18:11:14;11.80;99.90
32965;DHT22;19317;48.226;11.686;2023-02-22T18:16:05;11.80;99.90
32965;DHT22;19317;48.226;11.686;2023-02-22T18:20:56;12.10;99.90
32965;DHT22;19317;48.226;11.686;2023-02-22T18:25:50;11.80;99.90
32965;DHT22;19317;48.226;11.686;2023-02-22T18:30:41;11.50;99.90
32965;DHT22;19317;48.226;11.686;2023-02-22T18:35:31;11.60;99.90
32965;DHT22;19317;48.226;11.686;2023-02-22T18:40:22;11.90;99.90
32965;DHT22;19317;48.226;11.686;2023-02-22T18:45:12;11.40;99.90
32965;DHT22;19317;48.226;11.686;2023-02-22T18:50:03;11.70;99.90
32965;DHT22;19317;48.226;11.686;2023-02-22T18:54:54;11.50;99.90
32965;DHT22;19317;48.226;11.686;2023-02-22T18:59:44;11.50;99.90
32965;DHT22;19317;48.226;11.686;2023-02-22T19:04:35;11.50;99.90
32965;DHT22;19317;48.226;11.686;2023-02-22T19:09:25;10.50;99.90
32965;DHT22;19317;48.226;11.686;2023-02-22T19:14:16;10.70;99.90
32965;DHT22;19317;48.226;11.686;2023-02-22T19:19:07;10.60;99.90
32965;DHT22;19317;48.226;11.686;2023-02-22T19:23:57;10.10;99.90
32965;DHT22;19317;48.226;11.686;2023-02-22T19:28:48;9.80;99.90
32965;DHT22;19317;48.226;11.686;2023-02-22T19:33:39;10.00;99.90
32965;DHT22;19317;48.226;11.686;2023-02-22T19:38:30;10.20;99.90
32965;DHT22;19317;48.226;11.686;2023-02-22T19:43:21;10.00;99.90
32965;DHT22;19317;48.226;11.686;2023-02-22T19:48:11;9.80;99.90
32965;DHT22;19317;48.226;11.686;2023-02-22T19:53:02;9.60;99.90
32965;DHT22;19317;48.226;11.686;2023-02-22T19:57:52;9.50;99.90
32965;DHT22;19317;48.226;11.686;2023-02-22T20:02:42;9.50;99.90
32965;DHT22;19317;48.226;11.686;2023-02-22T20:07:33;9.40;99.90
32965;DHT22;19317;48.226;11.686;2023-02-22T20:12:23;9.50;99.90
32965;DHT22;19317;48.226;11.686;2023-02-22T20:17:14;9.50;99.90
32965;DHT22;19317;48.226;11.686;2023-02-22T20:22:05;9.50;99.90
32965;DHT22;19317;48.226;11.686;2023-02-22T20:26:55;9.60;99.90
32965;DHT22;19317;48.226;11.686;2023-02-22T20:31:46;9.50;99.90
32965;DHT22;19317;48.226;11.686;2023-02-22T20:36:38;9.60;99.90
32965;DHT22;19317;48.226;11.686;2023-02-22T20:41:31;9.60;99.90
32965;DHT22;19317;48.226;11.686;2023-02-22T20:46:23;9.60;99.90
32965;DHT22;19317;48.226;11.686;2023-02-22T20:51:14;9.60;99.90
32965;DHT22;19317;48.226;11.686;2023-02-22T20:56:05;9.50;99.90
32965;DHT22;19317;48.226;11.686;2023-02-22T21:01:01;9.60;99.90
32965;DHT22;19317;48.226;11.686;2023-02-22T21:05:51;9.60;99.90
32965;DHT22;19317;48.226;11.686;2023-02-22T21:10:43;9.50;99.90
32965;DHT22;19317;48.226;11.686;2023-02-22T21:15:35;9.60;99.90
32965;DHT22;19317;48.226;11.686;2023-02-22T21:20:25;9.60;99.90
32965;DHT22;19317;48.226;11.686;2023-02-22T21:25:16;9.60;99.90
32965;DHT22;19317;48.226;11.686;2023-02-22T21:30:07;9.60;99.90
32965;DHT22;19317;48.226;11.686;2023-02-22T21:34:58;9.60;99.90
32965;DHT22;19317;48.226;11.686;2023-02-22T21:39:48;9.50;99.90
32965;DHT22;19317;48.226;11.686;2023-02-22T21:44:39;9.50;99.90
32965;DHT22;19317;48.226;11.686;2023-02-22T21:49:29;9.40;99.90
32965;DHT22;19317;48.226;11.686;2023-02-22T21:54:20;9.30;99.90
32965;DHT22;19317;48.226;11.686;2023-02-22T21:59:16;9.30;99.90
32965;DHT22;19317;48.226;11.686;2023-02-22T22:04:07;9.40;99.90
32965;DHT22;19317;48.226;11.686;2023-02-22T22:08:58;9.30;99.90
32965;DHT22;19317;48.226;11.686;2023-02-22T22:13:48;9.20;99.90
32965;DHT22;19317;48.226;11.686;2023-02-22T22:18:40;9.20;99.90
32965;DHT22;19317;48.226;11.686;2023-02-22T22:23:31;9.10;99.90
32965;DHT22;19317;48.226;11.686;2023-02-22T22:28:21;9.10;99.90
32965;DHT22;19317;48.226;11.686;2023-02-22T22:33:12;9.10;99.90
32965;DHT22;19317;48.226;11.686;2023-02-22T22:38:02;9.10;99.90
32965;DHT22;19317;48.226;11.686;2023-02-22T22:42:53;9.00;99.90
32965;DHT22;19317;48.226;11.686;2023-02-22T22:47:43;9.00;99.90
32965;DHT22;19317;48.226;11.686;2023-02-22T22:52:34;8.90;99.90
32965;DHT22;19317;48.226;11.686;2023-02-22T22:57:25;8.90;99.90
32965;DHT22;19317;48.226;11.686;2023-02-22T23:02:15;8.90;99.90
32965;DHT22;19317;48.226;11.686;2023-02-22T23:07:06;9.20;99.90
32965;DHT22;19317;48.226;11.686;2023-02-22T23:11:59;9.20;99.90
32965;DHT22;19317;48.226;11.686;2023-02-22T23:16:52;8.80;99.90
32965;DHT22;19317;48.226;11.686;2023-02-22T23:21:44;8.80;99.90
32965;DHT22;19317;48.226;11.686;2023-02-22T23:26:35;8.70;99.90
32965;DHT22;19317;48.226;11.686;2023-02-22T23:31:25;8.70;99.90
32965;DHT22;19317;48.226;11.686;2023-02-22T23:36:18;8.70;99.90
32965;DHT22;19317;48.226;11.686;2023-02-22T23:41:14;8.60;99.90
32965;DHT22;19317;48.226;11.686;2023-02-22T23:46:10;8.50;99.90
32965;DHT22;19317;48.226;11.686;2023-02-22T23:51:08;8.50;99.90
32965;DHT22;19317;48.226;11.686;2023-02-22T23:55:58;8.40;99.90
